sensor_id;sensor_type;location;lat;lon;timestamp;temperature;humidity
29363;DHT22;16349;53.672;10.014;2022-10-16T00:01:32;14.00;99.90
29363;DHT22;16349;53.672;10.014;2022-10-16T00:04:00;13.90;99.90
29363;DHT22;16349;53.672;10.014;2022-10-16T00:06:29;13.90;99.90
29363;DHT22;16349;53.672;10.014;2022-10-16T00:08:58;14.00;99.90
29363;DHT22;16349;53.672;10.014;2022-10-16T00:11:27;13.90;99.90
29363;DHT22;16349;53.672;10.014;2022-10-16T00:13:57;13.90;99.90
29363;DHT22;16349;53.672;10.014;2022-10-16T00:16:24;13.90;99.90
29363;DHT22;16349;53.672;10.014;2022-10-16T00:18:51;13.90;99.90
29363;DHT22;16349;53.672;10.014;2022-10-16T00:21:20;13.90;99.90
29363;DHT22;16349;53.672;10.014;2022-10-16T00:23:50;13.90;99.90
29363;DHT22;16349;53.672;10.014;2022-10-16T00:26:19;13.90;99.90
29363;DHT22;16349;53.672;10.014;2022-10-16T00:28:46;13.90;99.90
29363;DHT22;16349;53.672;10.014;2022-10-16T00:31:14;13.90;99.90
29363;DHT22;16349;53.672;10.014;2022-10-16T00:33:41;13.90;99.90
29363;DHT22;16349;53.672;10.014;2022-10-16T00:36:10;13.90;99.90
29363;DHT22;16349;53.672;10.014;2022-10-16T00:38:37;13.90;99.90
29363;DHT22;16349;53.672;10.014;2022-10-16T00:41:04;13.90;99.90
29363;DHT22;16349;53.672;10.014;2022-10-16T00:43:39;13.90;99.90
29363;DHT22;16349;53.672;10.014;2022-10-16T00:46:11;13.90;99.90
29363;DHT22;16349;53.672;10.014;2022-10-16T00:48:39;13.90;99.90
29363;DHT22;16349;53.672;10.014;2022-10-16T00:51:07;13.90;99.90
29363;DHT22;16349;53.672;10.014;2022-10-16T00:53:35;13.90;99.90
29363;DHT22;16349;53.672;10.014;2022-10-16T00:56:02;14.00;99.90
29363;DHT22;16349;53.672;10.014;2022-10-16T00:58:29;14.00;99.90
29363;DHT22;16349;53.672;10.014;2022-10-16T01:00:57;14.00;99.90
29363;DHT22;16349;53.672;10.014;2022-10-16T01:03:27;14.00;99.90
29363;DHT22;16349;53.672;10.014;2022-10-16T01:06:04;14.00;99.90
29363;DHT22;16349;53.672;10.014;2022-10-16T01:08:42;14.00;99.90
29363;DHT22;16349;53.672;10.014;2022-10-16T01:11:15;14.00;99.90
29363;DHT22;16349;53.672;10.014;2022-10-16T01:13:46;14.00;99.90
29363;DHT22;16349;53.672;10.014;2022-10-16T01:16:22;13.90;99.90
29363;DHT22;16349;53.672;10.014;2022-10-16T01:18:56;13.90;99.90
29363;DHT22;16349;53.672;10.014;2022-10-16T01:21:26;13.90;99.90
29363;DHT22;16349;53.672;10.014;2022-10-16T01:24:01;13.90;99.90
29363;DHT22;16349;53.672;10.014;2022-10-16T01:26:37;13.90;99.90
29363;DHT22;16349;53.672;10.014;2022-10-16T01:29:13;13.90;99.90
29363;DHT22;16349;53.672;10.014;2022-10-16T01:31:46;13.80;99.90
29363;DHT22;16349;53.672;10.014;2022-10-16T01:34:16;13.80;99.90
29363;DHT22;16349;53.672;10.014;2022-10-16T01:36:48;13.80;99.90
29363;DHT22;16349;53.672;10.014;2022-10-16T01:39:18;13.80;99.90
29363;DHT22;16349;53.672;10.014;2022-10-16T01:41:51;13.70;99.90
29363;DHT22;16349;53.672;10.014;2022-10-16T01:44:22;13.70;99.90
29363;DHT22;16349;53.672;10.014;2022-10-16T01:46:52;13.70;99.90
29363;DHT22;16349;53.672;10.014;2022-10-16T01:49:20;13.60;99.90
29363;DHT22;16349;53.672;10.014;2022-10-16T01:51:51;13.60;99.90
29363;DHT22;16349;53.672;10.014;2022-10-16T01:54:19;13.60;99.90
29363;DHT22;16349;53.672;10.014;2022-10-16T01:56:47;13.60;99.90
29363;DHT22;16349;53.672;10.014;2022-10-16T01:59:17;13.60;99.90
29363;DHT22;16349;53.672;10.014;2022-10-16T02:01:49;13.60;99.90
29363;DHT22;16349;53.672;10.014;2022-10-16T02:04:20;13.60;99.90
29363;DHT22;16349;53.672;10.014;2022-10-16T02:06:47;13.50;99.90
29363;DHT22;16349;53.672;10.014;2022-10-16T02:09:14;13.50;99.90
29363;DHT22;16349;53.672;10.014;2022-10-16T02:11:42;13.50;99.90
29363;DHT22;16349;53.672;10.014;2022-10-16T02:14:09;13.50;99.90
29363;DHT22;16349;53.672;10.014;2022-10-16T02:16:38;13.50;99.90
29363;DHT22;16349;53.672;10.014;2022-10-16T02:19:07;13.40;99.90
29363;DHT22;16349;53.672;10.014;2022-10-16T02:21:40;13.40;99.90
29363;DHT22;16349;53.672;10.014;2022-10-16T02:24:12;13.40;99.90
29363;DHT22;16349;53.672;10.014;2022-10-16T02:26:44;13.40;99.90
29363;DHT22;16349;53.672;10.014;2022-10-16T02:29:16;13.30;99.90
29363;DHT22;16349;53.672;10.014;2022-10-16T02:31:46;13.30;99.90
29363;DHT22;16349;53.672;10.014;2022-10-16T02:34:16;13.30;99.90
29363;DHT22;16349;53.672;10.014;2022-10-16T02:36:44;13.30;99.90
29363;DHT22;16349;53.672;10.014;2022-10-16T02:39:12;13.20;99.90
29363;DHT22;16349;53.672;10.014;2022-10-16T02:41:39;13.20;99.90
29363;DHT22;16349;53.672;10.014;2022-10-16T02:44:06;13.20;99.90
29363;DHT22;16349;53.672;10.014;2022-10-16T02:46:33;13.20;99.90
29363;DHT22;16349;53.672;10.014;2022-10-16T02:48:59;13.20;99.90
29363;DHT22;16349;53.672;10.014;2022-10-16T02:51:27;13.10;99.90
29363;DHT22;16349;53.672;10.014;2022-10-16T02:53:54;13.10;99.90
29363;DHT22;16349;53.672;10.014;2022-10-16T02:56:21;13.10;99.90
29363;DHT22;16349;53.672;10.014;2022-10-16T02:58:49;13.10;99.90
29363;DHT22;16349;53.672;10.014;2022-10-16T03:01:16;13.10;99.90
29363;DHT22;16349;53.672;10.014;2022-10-16T03:03:43;13.10;99.90
29363;DHT22;16349;53.672;10.014;2022-10-16T03:06:09;13.00;99.90
29363;DHT22;16349;53.672;10.014;2022-10-16T03:08:37;13.00;99.90
29363;DHT22;16349;53.672;10.014;2022-10-16T03:11:04;13.00;99.90
29363;DHT22;16349;53.672;10.014;2022-10-16T03:13:31;13.00;99.90
29363;DHT22;16349;53.672;10.014;2022-10-16T03:15:58;12.90;99.90
29363;DHT22;16349;53.672;10.014;2022-10-16T03:18:24;12.90;99.90
29363;DHT22;16349;53.672;10.014;2022-10-16T03:20:51;12.90;99.90
29363;DHT22;16349;53.672;10.014;2022-10-16T03:23:17;12.80;99.90
29363;DHT22;16349;53.672;10.014;2022-10-16T03:25:45;12.80;99.90
29363;DHT22;16349;53.672;10.014;2022-10-16T03:28:12;12.80;99.90
29363;DHT22;16349;53.672;10.014;2022-10-16T03:30:39;12.80;99.90
29363;DHT22;16349;53.672;10.014;2022-10-16T03:33:06;12.70;99.90
29363;DHT22;16349;53.672;10.014;2022-10-16T03:35:32;12.70;99.90
29363;DHT22;16349;53.672;10.014;2022-10-16T03:37:59;12.70;99.90
29363;DHT22;16349;53.672;10.014;2022-10-16T03:40:26;12.70;99.90
29363;DHT22;16349;53.672;10.014;2022-10-16T03:42:54;12.70;99.90
29363;DHT22;16349;53.672;10.014;2022-10-16T03:45:22;12.70;99.90
29363;DHT22;16349;53.672;10.014;2022-10-16T03:47:49;12.70;99.90
29363;DHT22;16349;53.672;10.014;2022-10-16T03:50:16;12.70;99.90
29363;DHT22;16349;53.672;10.014;2022-10-16T03:52:43;12.70;99.90
29363;DHT22;16349;53.672;10.014;2022-10-16T03:55:10;12.70;99.90
29363;DHT22;16349;53.672;10.014;2022-10-16T03:57:37;12.70;99.90
29363;DHT22;16349;53.672;10.014;2022-10-16T04:00:07;12.70;99.90
29363;DHT22;16349;53.672;10.014;2022-10-16T04:02:37;12.70;99.90
29363;DHT22;16349;53.672;10.014;2022-10-16T04:05:05;12.70;99.90
29363;DHT22;16349;53.672;10.014;2022-10-16T04:07:31;12.70;99.90
29363;DHT22;16349;53.672;10.014;2022-10-16T04:09:58;12.70;99.90
29363;DHT22;16349;53.672;10.014;2022-10-16T04:12:25;12.70;99.90
29363;DHT22;16349;53.672;10.014;2022-10-16T04:14:53;12.70;99.90
29363;DHT22;16349;53.672;10.014;2022-10-16T04:17:20;12.70;99.90
29363;DHT22;16349;53.672;10.014;2022-10-16T04:19:47;12.70;99.90
29363;DHT22;16349;53.672;10.014;2022-10-16T04:22:14;12.70;99.90
29363;DHT22;16349;53.672;10.014;2022-10-16T04:24:41;12.70;99.90
29363;DHT22;16349;53.672;10.014;2022-10-16T04:27:08;12.70;99.90
29363;DHT22;16349;53.672;10.014;2022-10-16T04:29:36;12.70;99.90
29363;DHT22;16349;53.672;10.014;2022-10-16T04:32:02;12.70;99.90
29363;DHT22;16349;53.672;10.014;2022-10-16T04:34:31;12.70;99.90
29363;DHT22;16349;53.672;10.014;2022-10-16T04:36:58;12.70;99.90
29363;DHT22;16349;53.672;10.014;2022-10-16T04:39:24;12.70;99.90
29363;DHT22;16349;53.672;10.014;2022-10-16T04:41:51;12.70;99.90
29363;DHT22;16349;53.672;10.014;2022-10-16T04:44:18;12.70;99.90
29363;DHT22;16349;53.672;10.014;2022-10-16T04:46:46;12.70;99.90
29363;DHT22;16349;53.672;10.014;2022-10-16T04:49:13;12.70;99.90
29363;DHT22;16349;53.672;10.014;2022-10-16T04:51:41;12.70;99.90
29363;DHT22;16349;53.672;10.014;2022-10-16T04:54:08;12.70;99.90
29363;DHT22;16349;53.672;10.014;2022-10-16T04:56:36;12.60;99.90
29363;DHT22;16349;53.672;10.014;2022-10-16T04:59:09;12.60;99.90
29363;DHT22;16349;53.672;10.014;2022-10-16T05:01:35;12.60;99.90
29363;DHT22;16349;53.672;10.014;2022-10-16T05:04:02;12.60;99.90
29363;DHT22;16349;53.672;10.014;2022-10-16T05:06:30;12.60;99.90
29363;DHT22;16349;53.672;10.014;2022-10-16T05:08:58;12.60;99.90
29363;DHT22;16349;53.672;10.014;2022-10-16T05:11:25;12.60;99.90
29363;DHT22;16349;53.672;10.014;2022-10-16T05:13:52;12.60;99.90
29363;DHT22;16349;53.672;10.014;2022-10-16T05:16:19;12.60;99.90
29363;DHT22;16349;53.672;10.014;2022-10-16T05:18:46;12.60;99.90
29363;DHT22;16349;53.672;10.014;2022-10-16T05:21:12;12.60;99.90
29363;DHT22;16349;53.672;10.014;2022-10-16T05:23:40;12.60;99.90
29363;DHT22;16349;53.672;10.014;2022-10-16T05:26:09;12.60;99.90
29363;DHT22;16349;53.672;10.014;2022-10-16T05:28:36;12.60;99.90
29363;DHT22;16349;53.672;10.014;2022-10-16T05:31:04;12.60;99.90
29363;DHT22;16349;53.672;10.014;2022-10-16T05:33:32;12.60;99.90
29363;DHT22;16349;53.672;10.014;2022-10-16T05:36:01;12.70;99.90
29363;DHT22;16349;53.672;10.014;2022-10-16T05:38:28;12.70;99.90
29363;DHT22;16349;53.672;10.014;2022-10-16T05:40:55;12.70;99.90
29363;DHT22;16349;53.672;10.014;2022-10-16T05:43:24;12.70;99.90
29363;DHT22;16349;53.672;10.014;2022-10-16T05:45:55;12.70;99.90
29363;DHT22;16349;53.672;10.014;2022-10-16T05:48:22;12.70;99.90
29363;DHT22;16349;53.672;10.014;2022-10-16T05:50:56;12.70;99.90
29363;DHT22;16349;53.672;10.014;2022-10-16T05:53:23;12.80;99.90
29363;DHT22;16349;53.672;10.014;2022-10-16T05:55:52;12.80;99.90
29363;DHT22;16349;53.672;10.014;2022-10-16T05:58:19;12.80;99.90
29363;DHT22;16349;53.672;10.014;2022-10-16T06:00:54;12.80;99.90
29363;DHT22;16349;53.672;10.014;2022-10-16T06:03:21;12.80;99.90
29363;DHT22;16349;53.672;10.014;2022-10-16T06:05:48;12.80;99.90
29363;DHT22;16349;53.672;10.014;2022-10-16T06:08:15;12.80;99.90
29363;DHT22;16349;53.672;10.014;2022-10-16T06:10:41;12.80;99.90
29363;DHT22;16349;53.672;10.014;2022-10-16T06:13:09;12.80;99.90
29363;DHT22;16349;53.672;10.014;2022-10-16T06:15:37;12.80;99.90
29363;DHT22;16349;53.672;10.014;2022-10-16T06:18:06;12.90;99.90
29363;DHT22;16349;53.672;10.014;2022-10-16T06:20:33;12.90;99.90
29363;DHT22;16349;53.672;10.014;2022-10-16T06:23:00;12.90;99.90
29363;DHT22;16349;53.672;10.014;2022-10-16T06:25:27;12.90;99.90
29363;DHT22;16349;53.672;10.014;2022-10-16T06:27:53;12.90;99.90
29363;DHT22;16349;53.672;10.014;2022-10-16T06:30:20;12.90;99.90
29363;DHT22;16349;53.672;10.014;2022-10-16T06:32:47;13.00;99.90
29363;DHT22;16349;53.672;10.014;2022-10-16T06:35:15;13.00;99.90
29363;DHT22;16349;53.672;10.014;2022-10-16T06:37:42;13.00;99.90
29363;DHT22;16349;53.672;10.014;2022-10-16T06:40:10;13.10;99.90
29363;DHT22;16349;53.672;10.014;2022-10-16T06:42:37;13.10;99.90
29363;DHT22;16349;53.672;10.014;2022-10-16T06:45:04;13.10;99.90
29363;DHT22;16349;53.672;10.014;2022-10-16T06:47:31;13.20;99.90
29363;DHT22;16349;53.672;10.014;2022-10-16T06:49:58;13.20;99.90
29363;DHT22;16349;53.672;10.014;2022-10-16T06:52:28;13.30;99.90
29363;DHT22;16349;53.672;10.014;2022-10-16T06:54:54;13.30;99.90
29363;DHT22;16349;53.672;10.014;2022-10-16T06:57:21;13.40;99.90
29363;DHT22;16349;53.672;10.014;2022-10-16T06:59:48;13.50;99.90
29363;DHT22;16349;53.672;10.014;2022-10-16T07:02:15;13.60;99.90
29363;DHT22;16349;53.672;10.014;2022-10-16T07:04:41;13.70;99.90
29363;DHT22;16349;53.672;10.014;2022-10-16T07:07:09;13.80;99.90
29363;DHT22;16349;53.672;10.014;2022-10-16T07:09:37;14.00;99.90
29363;DHT22;16349;53.672;10.014;2022-10-16T07:12:04;14.10;99.90
29363;DHT22;16349;53.672;10.014;2022-10-16T07:14:31;14.20;99.90
29363;DHT22;16349;53.672;10.014;2022-10-16T07:16:58;14.30;99.90
29363;DHT22;16349;53.672;10.014;2022-10-16T07:19:24;14.30;99.90
29363;DHT22;16349;53.672;10.014;2022-10-16T07:21:51;14.30;99.90
29363;DHT22;16349;53.672;10.014;2022-10-16T07:24:18;14.40;99.90
29363;DHT22;16349;53.672;10.014;2022-10-16T07:26:47;14.40;99.90
29363;DHT22;16349;53.672;10.014;2022-10-16T07:29:16;14.40;99.90
29363;DHT22;16349;53.672;10.014;2022-10-16T07:31:43;14.40;99.90
29363;DHT22;16349;53.672;10.014;2022-10-16T07:34:11;14.40;99.90
29363;DHT22;16349;53.672;10.014;2022-10-16T07:36:39;14.40;99.90
29363;DHT22;16349;53.672;10.014;2022-10-16T07:39:06;14.40;99.90
29363;DHT22;16349;53.672;10.014;2022-10-16T07:41:33;14.50;99.90
29363;DHT22;16349;53.672;10.014;2022-10-16T07:44:03;14.50;99.90
29363;DHT22;16349;53.672;10.014;2022-10-16T07:46:31;14.50;99.90
29363;DHT22;16349;53.672;10.014;2022-10-16T07:48:59;14.60;99.90
29363;DHT22;16349;53.672;10.014;2022-10-16T07:51:26;14.70;99.90
29363;DHT22;16349;53.672;10.014;2022-10-16T07:53:53;14.80;99.90
29363;DHT22;16349;53.672;10.014;2022-10-16T07:56:21;14.80;99.90
29363;DHT22;16349;53.672;10.014;2022-10-16T07:58:49;14.90;99.90
29363;DHT22;16349;53.672;10.014;2022-10-16T08:01:17;14.90;99.90
29363;DHT22;16349;53.672;10.014;2022-10-16T08:03:46;14.80;99.90
29363;DHT22;16349;53.672;10.014;2022-10-16T08:06:14;14.80;99.90
29363;DHT22;16349;53.672;10.014;2022-10-16T08:08:41;14.80;99.90
29363;DHT22;16349;53.672;10.014;2022-10-16T08:11:08;14.70;99.90
29363;DHT22;16349;53.672;10.014;2022-10-16T08:13:36;14.70;99.90
29363;DHT22;16349;53.672;10.014;2022-10-16T08:16:03;14.80;99.90
29363;DHT22;16349;53.672;10.014;2022-10-16T08:18:35;14.80;99.90
29363;DHT22;16349;53.672;10.014;2022-10-16T08:21:03;14.80;99.90
29363;DHT22;16349;53.672;10.014;2022-10-16T08:23:30;14.90;99.90
29363;DHT22;16349;53.672;10.014;2022-10-16T08:26:03;14.80;99.90
29363;DHT22;16349;53.672;10.014;2022-10-16T08:28:30;14.90;99.90
29363;DHT22;16349;53.672;10.014;2022-10-16T08:31:05;15.00;99.90
29363;DHT22;16349;53.672;10.014;2022-10-16T08:33:32;15.10;99.90
29363;DHT22;16349;53.672;10.014;2022-10-16T08:36:02;15.20;99.90
29363;DHT22;16349;53.672;10.014;2022-10-16T08:38:29;15.30;99.90
29363;DHT22;16349;53.672;10.014;2022-10-16T08:41:02;15.30;99.90
29363;DHT22;16349;53.672;10.014;2022-10-16T08:43:49;15.40;99.90
29363;DHT22;16349;53.672;10.014;2022-10-16T08:46:33;15.30;99.90
29363;DHT22;16349;53.672;10.014;2022-10-16T08:49:10;15.30;99.90
29363;DHT22;16349;53.672;10.014;2022-10-16T08:51:40;15.20;99.90
29363;DHT22;16349;53.672;10.014;2022-10-16T08:54:26;15.20;99.90
29363;DHT22;16349;53.672;10.014;2022-10-16T08:56:55;15.20;99.90
29363;DHT22;16349;53.672;10.014;2022-10-16T08:59:22;15.10;99.90
29363;DHT22;16349;53.672;10.014;2022-10-16T09:01:50;15.20;99.90
29363;DHT22;16349;53.672;10.014;2022-10-16T09:04:41;15.30;99.90
29363;DHT22;16349;53.672;10.014;2022-10-16T09:07:15;15.40;99.90
29363;DHT22;16349;53.672;10.014;2022-10-16T09:09:54;15.40;99.90
29363;DHT22;16349;53.672;10.014;2022-10-16T09:12:28;15.40;99.90
29363;DHT22;16349;53.672;10.014;2022-10-16T09:15:02;15.40;99.90
29363;DHT22;16349;53.672;10.014;2022-10-16T09:17:41;15.50;99.90
29363;DHT22;16349;53.672;10.014;2022-10-16T09:20:19;15.50;99.90
29363;DHT22;16349;53.672;10.014;2022-10-16T09:22:49;15.60;99.90
29363;DHT22;16349;53.672;10.014;2022-10-16T09:25:21;15.60;99.90
29363;DHT22;16349;53.672;10.014;2022-10-16T09:27:48;15.70;99.90
29363;DHT22;16349;53.672;10.014;2022-10-16T09:30:20;15.70;99.90
29363;DHT22;16349;53.672;10.014;2022-10-16T09:32:51;15.70;99.90
29363;DHT22;16349;53.672;10.014;2022-10-16T09:35:21;15.80;99.90
29363;DHT22;16349;53.672;10.014;2022-10-16T09:37:52;15.80;99.90
29363;DHT22;16349;53.672;10.014;2022-10-16T09:40:25;15.90;99.90
29363;DHT22;16349;53.672;10.014;2022-10-16T09:42:56;16.10;99.90
29363;DHT22;16349;53.672;10.014;2022-10-16T09:45:24;16.10;99.90
29363;DHT22;16349;53.672;10.014;2022-10-16T09:47:51;16.20;99.90
29363;DHT22;16349;53.672;10.014;2022-10-16T09:50:23;16.30;99.90
29363;DHT22;16349;53.672;10.014;2022-10-16T09:53:04;16.30;99.90
29363;DHT22;16349;53.672;10.014;2022-10-16T09:55:31;16.40;99.90
29363;DHT22;16349;53.672;10.014;2022-10-16T09:57:58;16.40;99.90
29363;DHT22;16349;53.672;10.014;2022-10-16T10:00:25;16.50;99.90
29363;DHT22;16349;53.672;10.014;2022-10-16T10:02:53;16.60;99.90
29363;DHT22;16349;53.672;10.014;2022-10-16T10:05:22;16.60;99.90
29363;DHT22;16349;53.672;10.014;2022-10-16T10:07:54;16.60;99.90
29363;DHT22;16349;53.672;10.014;2022-10-16T10:10:25;16.70;99.90
29363;DHT22;16349;53.672;10.014;2022-10-16T10:12:53;16.70;99.90
29363;DHT22;16349;53.672;10.014;2022-10-16T10:15:21;16.70;99.90
29363;DHT22;16349;53.672;10.014;2022-10-16T10:17:51;16.70;99.90
29363;DHT22;16349;53.672;10.014;2022-10-16T10:20:24;16.70;99.90
29363;DHT22;16349;53.672;10.014;2022-10-16T10:22:51;16.80;99.90
29363;DHT22;16349;53.672;10.014;2022-10-16T10:25:37;16.90;99.90
29363;DHT22;16349;53.672;10.014;2022-10-16T10:28:24;17.00;99.90
29363;DHT22;16349;53.672;10.014;2022-10-16T10:31:00;17.00;99.90
29363;DHT22;16349;53.672;10.014;2022-10-16T10:33:33;16.90;99.90
29363;DHT22;16349;53.672;10.014;2022-10-16T10:36:12;17.00;99.90
29363;DHT22;16349;53.672;10.014;2022-10-16T10:38:47;17.00;99.90
29363;DHT22;16349;53.672;10.014;2022-10-16T10:41:34;17.00;99.90
29363;DHT22;16349;53.672;10.014;2022-10-16T10:44:11;17.20;99.90
29363;DHT22;16349;53.672;10.014;2022-10-16T10:46:48;17.30;99.90
29363;DHT22;16349;53.672;10.014;2022-10-16T10:49:39;17.40;99.90
29363;DHT22;16349;53.672;10.014;2022-10-16T10:52:33;17.40;99.90
29363;DHT22;16349;53.672;10.014;2022-10-16T10:55:15;17.30;99.90
29363;DHT22;16349;53.672;10.014;2022-10-16T10:58:07;17.20;99.90
29363;DHT22;16349;53.672;10.014;2022-10-16T11:00:44;17.10;99.90
29363;DHT22;16349;53.672;10.014;2022-10-16T11:03:23;17.10;99.90
29363;DHT22;16349;53.672;10.014;2022-10-16T11:05:56;17.20;99.90
29363;DHT22;16349;53.672;10.014;2022-10-16T11:08:28;17.30;99.90
29363;DHT22;16349;53.672;10.014;2022-10-16T11:11:03;17.30;99.90
29363;DHT22;16349;53.672;10.014;2022-10-16T11:13:36;17.40;99.90
29363;DHT22;16349;53.672;10.014;2022-10-16T11:16:13;17.40;99.90
29363;DHT22;16349;53.672;10.014;2022-10-16T11:18:47;17.40;99.90
29363;DHT22;16349;53.672;10.014;2022-10-16T11:21:18;17.50;99.90
29363;DHT22;16349;53.672;10.014;2022-10-16T11:23:53;17.50;99.90
29363;DHT22;16349;53.672;10.014;2022-10-16T11:26:24;17.50;99.90
29363;DHT22;16349;53.672;10.014;2022-10-16T11:28:54;17.50;99.90
29363;DHT22;16349;53.672;10.014;2022-10-16T11:31:27;17.50;99.90
29363;DHT22;16349;53.672;10.014;2022-10-16T11:34:02;17.60;99.90
29363;DHT22;16349;53.672;10.014;2022-10-16T11:36:35;17.60;99.90
29363;DHT22;16349;53.672;10.014;2022-10-16T11:39:11;17.70;99.90
29363;DHT22;16349;53.672;10.014;2022-10-16T11:41:48;17.70;99.90
29363;DHT22;16349;53.672;10.014;2022-10-16T11:44:33;17.60;99.90
29363;DHT22;16349;53.672;10.014;2022-10-16T11:47:11;17.70;99.90
29363;DHT22;16349;53.672;10.014;2022-10-16T11:49:39;17.70;99.90
29363;DHT22;16349;53.672;10.014;2022-10-16T11:52:14;17.90;99.90
29363;DHT22;16349;53.672;10.014;2022-10-16T11:54:47;18.00;99.90
29363;DHT22;16349;53.672;10.014;2022-10-16T11:57:18;18.00;99.90
29363;DHT22;16349;53.672;10.014;2022-10-16T11:59:52;17.90;99.90
29363;DHT22;16349;53.672;10.014;2022-10-16T12:02:37;17.90;99.90
29363;DHT22;16349;53.672;10.014;2022-10-16T12:05:15;17.90;99.90
29363;DHT22;16349;53.672;10.014;2022-10-16T12:07:50;18.00;99.90
29363;DHT22;16349;53.672;10.014;2022-10-16T12:10:22;18.00;99.90
29363;DHT22;16349;53.672;10.014;2022-10-16T12:12:50;18.00;99.90
29363;DHT22;16349;53.672;10.014;2022-10-16T12:15:25;18.00;99.90
29363;DHT22;16349;53.672;10.014;2022-10-16T12:17:52;18.10;99.90
29363;DHT22;16349;53.672;10.014;2022-10-16T12:20:25;18.10;99.90
29363;DHT22;16349;53.672;10.014;2022-10-16T12:22:54;18.20;99.90
29363;DHT22;16349;53.672;10.014;2022-10-16T12:25:25;18.20;99.90
29363;DHT22;16349;53.672;10.014;2022-10-16T12:27:59;18.10;99.90
29363;DHT22;16349;53.672;10.014;2022-10-16T12:30:30;18.20;99.90
29363;DHT22;16349;53.672;10.014;2022-10-16T12:33:00;18.20;99.90
29363;DHT22;16349;53.672;10.014;2022-10-16T12:35:30;18.20;99.90
29363;DHT22;16349;53.672;10.014;2022-10-16T12:38:06;18.10;99.90
29363;DHT22;16349;53.672;10.014;2022-10-16T12:40:36;18.10;99.90
29363;DHT22;16349;53.672;10.014;2022-10-16T12:43:25;18.20;99.90
29363;DHT22;16349;53.672;10.014;2022-10-16T12:46:03;18.20;99.90
29363;DHT22;16349;53.672;10.014;2022-10-16T12:48:30;18.20;99.90
29363;DHT22;16349;53.672;10.014;2022-10-16T12:50:57;18.20;99.90
29363;DHT22;16349;53.672;10.014;2022-10-16T12:53:25;18.20;99.90
29363;DHT22;16349;53.672;10.014;2022-10-16T12:56:03;18.30;99.90
29363;DHT22;16349;53.672;10.014;2022-10-16T12:58:47;18.30;99.90
29363;DHT22;16349;53.672;10.014;2022-10-16T13:01:26;18.30;99.90
29363;DHT22;16349;53.672;10.014;2022-10-16T13:04:10;18.30;99.90
29363;DHT22;16349;53.672;10.014;2022-10-16T13:06:45;18.20;99.90
29363;DHT22;16349;53.672;10.014;2022-10-16T13:09:32;18.20;99.90
29363;DHT22;16349;53.672;10.014;2022-10-16T13:12:15;18.10;99.90
29363;DHT22;16349;53.672;10.014;2022-10-16T13:15:17;18.20;99.90
29363;DHT22;16349;53.672;10.014;2022-10-16T13:17:52;18.30;99.90
29363;DHT22;16349;53.672;10.014;2022-10-16T13:20:28;18.30;99.90
29363;DHT22;16349;53.672;10.014;2022-10-16T13:23:04;18.30;99.90
29363;DHT22;16349;53.672;10.014;2022-10-16T13:25:42;18.40;99.90
29363;DHT22;16349;53.672;10.014;2022-10-16T13:28:11;19.10;99.90
29363;DHT22;16349;53.672;10.014;2022-10-16T13:30:40;18.60;99.90
29363;DHT22;16349;53.672;10.014;2022-10-16T13:33:14;18.80;99.90
29363;DHT22;16349;53.672;10.014;2022-10-16T13:35:48;19.00;99.90
29363;DHT22;16349;53.672;10.014;2022-10-16T13:38:17;19.20;99.90
29363;DHT22;16349;53.672;10.014;2022-10-16T13:40:53;19.10;99.90
29363;DHT22;16349;53.672;10.014;2022-10-16T13:43:23;19.10;99.90
29363;DHT22;16349;53.672;10.014;2022-10-16T13:45:55;19.00;99.90
29363;DHT22;16349;53.672;10.014;2022-10-16T13:48:23;18.80;99.90
29363;DHT22;16349;53.672;10.014;2022-10-16T13:51:01;18.70;99.90
29363;DHT22;16349;53.672;10.014;2022-10-16T13:53:31;18.90;99.90
29363;DHT22;16349;53.672;10.014;2022-10-16T13:55:58;18.60;99.90
29363;DHT22;16349;53.672;10.014;2022-10-16T13:58:26;18.50;99.90
29363;DHT22;16349;53.672;10.014;2022-10-16T14:00:55;18.60;99.90
29363;DHT22;16349;53.672;10.014;2022-10-16T14:03:23;19.00;99.90
29363;DHT22;16349;53.672;10.014;2022-10-16T14:08:19;19.60;99.90
29363;DHT22;16349;53.672;10.014;2022-10-16T14:10:48;19.80;99.90
29363;DHT22;16349;53.672;10.014;2022-10-16T14:13:18;19.90;99.90
29363;DHT22;16349;53.672;10.014;2022-10-16T14:15:47;20.20;99.90
29363;DHT22;16349;53.672;10.014;2022-10-16T14:18:20;20.30;99.90
29363;DHT22;16349;53.672;10.014;2022-10-16T14:20:49;20.30;99.90
29363;DHT22;16349;53.672;10.014;2022-10-16T14:23:22;20.40;99.90
29363;DHT22;16349;53.672;10.014;2022-10-16T14:25:49;20.50;99.90
29363;DHT22;16349;53.672;10.014;2022-10-16T14:28:17;20.00;99.90
29363;DHT22;16349;53.672;10.014;2022-10-16T14:30:55;19.60;99.90
29363;DHT22;16349;53.672;10.014;2022-10-16T14:33:24;19.30;99.90
29363;DHT22;16349;53.672;10.014;2022-10-16T14:36:05;19.20;99.90
29363;DHT22;16349;53.672;10.014;2022-10-16T14:38:32;19.30;99.90
29363;DHT22;16349;53.672;10.014;2022-10-16T14:41:00;19.40;99.90
29363;DHT22;16349;53.672;10.014;2022-10-16T14:43:32;19.60;99.90
29363;DHT22;16349;53.672;10.014;2022-10-16T14:46:02;19.90;99.90
29363;DHT22;16349;53.672;10.014;2022-10-16T14:48:30;20.30;99.90
29363;DHT22;16349;53.672;10.014;2022-10-16T14:50:56;20.40;99.90
29363;DHT22;16349;53.672;10.014;2022-10-16T14:53:24;20.80;99.90
29363;DHT22;16349;53.672;10.014;2022-10-16T14:55:51;21.00;99.70
29363;DHT22;16349;53.672;10.014;2022-10-16T14:58:20;21.00;99.80
29363;DHT22;16349;53.672;10.014;2022-10-16T15:00:48;21.10;99.50
29363;DHT22;16349;53.672;10.014;2022-10-16T15:03:15;20.80;99.30
29363;DHT22;16349;53.672;10.014;2022-10-16T15:05:42;20.40;99.20
29363;DHT22;16349;53.672;10.014;2022-10-16T15:08:09;19.90;99.50
29363;DHT22;16349;53.672;10.014;2022-10-16T15:10:42;19.60;99.90
29363;DHT22;16349;53.672;10.014;2022-10-16T15:13:11;19.30;99.90
29363;DHT22;16349;53.672;10.014;2022-10-16T15:15:41;19.00;99.90
29363;DHT22;16349;53.672;10.014;2022-10-16T15:18:09;18.80;99.90
29363;DHT22;16349;53.672;10.014;2022-10-16T15:20:37;18.50;99.90
29363;DHT22;16349;53.672;10.014;2022-10-16T15:23:05;18.40;99.90
29363;DHT22;16349;53.672;10.014;2022-10-16T15:25:36;18.30;99.90
29363;DHT22;16349;53.672;10.014;2022-10-16T15:28:05;18.20;99.90
29363;DHT22;16349;53.672;10.014;2022-10-16T15:30:33;18.10;99.90
29363;DHT22;16349;53.672;10.014;2022-10-16T15:33:02;18.00;99.90
29363;DHT22;16349;53.672;10.014;2022-10-16T15:35:30;17.90;99.90
29363;DHT22;16349;53.672;10.014;2022-10-16T15:37:58;17.80;99.90